sensor_id;sensor_type;location;lat;lon;timestamp;P1;durP1;ratioP1;P2;durP2;ratioP2
46755;SDS011;32506;52.826;-1.192;2022-11-12T00:00:12;5.20;;;1.83;;
46755;SDS011;32506;52.826;-1.192;2022-11-12T00:02:38;4.70;;;1.95;;
46755;SDS011;32506;52.826;-1.192;2022-11-12T00:05:04;7.20;;;2.10;;
46755;SDS011;32506;52.826;-1.192;2022-11-12T00:07:29;5.63;;;2.15;;
46755;SDS011;32506;52.826;-1.192;2022-11-12T00:09:55;8.90;;;2.40;;
46755;SDS011;32506;52.826;-1.192;2022-11-12T00:12:20;4.38;;;2.42;;
46755;SDS011;32506;52.826;-1.192;2022-11-12T00:14:46;5.00;;;1.73;;
46755;SDS011;32506;52.826;-1.192;2022-11-12T00:17:11;5.13;;;1.80;;
46755;SDS011;32506;52.826;-1.192;2022-11-12T00:19:37;4.40;;;1.67;;
46755;SDS011;32506;52.826;-1.192;2022-11-12T00:22:02;6.70;;;1.98;;
46755;SDS011;32506;52.826;-1.192;2022-11-12T00:24:28;7.28;;;1.80;;
46755;SDS011;32506;52.826;-1.192;2022-11-12T00:26:53;7.15;;;1.88;;
46755;SDS011;32506;52.826;-1.192;2022-11-12T00:29:19;6.82;;;1.77;;
46755;SDS011;32506;52.826;-1.192;2022-11-12T00:31:45;7.07;;;2.47;;
46755;SDS011;32506;52.826;-1.192;2022-11-12T00:34:10;8.38;;;1.83;;
46755;SDS011;32506;52.826;-1.192;2022-11-12T00:36:35;7.10;;;1.98;;
46755;SDS011;32506;52.826;-1.192;2022-11-12T00:39:01;11.40;;;2.60;;
46755;SDS011;32506;52.826;-1.192;2022-11-12T00:41:28;5.57;;;1.67;;
46755;SDS011;32506;52.826;-1.192;2022-11-12T00:43:53;7.50;;;1.83;;
46755;SDS011;32506;52.826;-1.192;2022-11-12T00:46:19;4.88;;;1.60;;
46755;SDS011;32506;52.826;-1.192;2022-11-12T00:48:44;4.47;;;1.98;;
46755;SDS011;32506;52.826;-1.192;2022-11-12T00:51:09;9.45;;;2.22;;
46755;SDS011;32506;52.826;-1.192;2022-11-12T00:53:35;4.78;;;1.40;;
46755;SDS011;32506;52.826;-1.192;2022-11-12T00:56:04;3.97;;;1.65;;
46755;SDS011;32506;52.826;-1.192;2022-11-12T00:58:32;6.20;;;1.75;;
46755;SDS011;32506;52.826;-1.192;2022-11-12T01:01:06;5.15;;;1.80;;
46755;SDS011;32506;52.826;-1.192;2022-11-12T01:03:33;5.18;;;1.65;;
46755;SDS011;32506;52.826;-1.192;2022-11-12T01:06:02;7.18;;;1.88;;
46755;SDS011;32506;52.826;-1.192;2022-11-12T01:08:30;5.83;;;1.70;;
46755;SDS011;32506;52.826;-1.192;2022-11-12T01:10:55;3.78;;;1.63;;
46755;SDS011;32506;52.826;-1.192;2022-11-12T01:13:21;3.78;;;1.90;;
46755;SDS011;32506;52.826;-1.192;2022-11-12T01:15:46;6.95;;;1.52;;
46755;SDS011;32506;52.826;-1.192;2022-11-12T01:18:11;5.40;;;1.90;;
46755;SDS011;32506;52.826;-1.192;2022-11-12T01:20:38;4.78;;;1.75;;
46755;SDS011;32506;52.826;-1.192;2022-11-12T01:23:04;8.82;;;1.67;;
46755;SDS011;32506;52.826;-1.192;2022-11-12T01:25:30;4.63;;;1.80;;
46755;SDS011;32506;52.826;-1.192;2022-11-12T01:27:56;3.97;;;1.88;;
46755;SDS011;32506;52.826;-1.192;2022-11-12T01:30:22;6.63;;;2.42;;
46755;SDS011;32506;52.826;-1.192;2022-11-12T01:32:47;4.38;;;1.60;;
46755;SDS011;32506;52.826;-1.192;2022-11-12T01:35:13;5.60;;;1.48;;
46755;SDS011;32506;52.826;-1.192;2022-11-12T01:37:38;5.63;;;1.67;;
46755;SDS011;32506;52.826;-1.192;2022-11-12T01:40:04;5.43;;;1.70;;
46755;SDS011;32506;52.826;-1.192;2022-11-12T01:42:30;5.65;;;2.60;;
46755;SDS011;32506;52.826;-1.192;2022-11-12T01:44:57;6.35;;;2.10;;
46755;SDS011;32506;52.826;-1.192;2022-11-12T01:47:26;6.35;;;1.70;;
46755;SDS011;32506;52.826;-1.192;2022-11-12T01:49:58;4.32;;;1.55;;
46755;SDS011;32506;52.826;-1.192;2022-11-12T01:52:30;7.80;;;1.90;;
46755;SDS011;32506;52.826;-1.192;2022-11-12T01:55:00;4.78;;;1.48;;
46755;SDS011;32506;52.826;-1.192;2022-11-12T01:57:32;6.63;;;1.77;;
46755;SDS011;32506;52.826;-1.192;2022-11-12T02:00:06;3.67;;;1.33;;
46755;SDS011;32506;52.826;-1.192;2022-11-12T02:02:35;6.07;;;1.88;;
46755;SDS011;32506;52.826;-1.192;2022-11-12T02:05:01;5.57;;;2.10;;
46755;SDS011;32506;52.826;-1.192;2022-11-12T02:07:29;8.82;;;2.10;;
46755;SDS011;32506;52.826;-1.192;2022-11-12T02:09:56;6.68;;;1.83;;
46755;SDS011;32506;52.826;-1.192;2022-11-12T02:12:27;6.28;;;1.80;;
46755;SDS011;32506;52.826;-1.192;2022-11-12T02:15:11;6.82;;;2.20;;
46755;SDS011;32506;52.826;-1.192;2022-11-12T02:17:37;5.95;;;1.30;;
46755;SDS011;32506;52.826;-1.192;2022-11-12T02:20:03;5.75;;;1.80;;
46755;SDS011;32506;52.826;-1.192;2022-11-12T02:22:32;5.25;;;1.90;;
46755;SDS011;32506;52.826;-1.192;2022-11-12T02:24:57;4.55;;;1.50;;
46755;SDS011;32506;52.826;-1.192;2022-11-12T02:27:23;5.05;;;1.75;;
46755;SDS011;32506;52.826;-1.192;2022-11-12T02:29:49;4.25;;;1.65;;
46755;SDS011;32506;52.826;-1.192;2022-11-12T02:32:14;4.95;;;2.00;;
46755;SDS011;32506;52.826;-1.192;2022-11-12T02:34:40;4.70;;;1.92;;
46755;SDS011;32506;52.826;-1.192;2022-11-12T02:37:06;9.35;;;2.08;;
46755;SDS011;32506;52.826;-1.192;2022-11-12T02:39:32;5.05;;;2.08;;
46755;SDS011;32506;52.826;-1.192;2022-11-12T02:41:57;5.32;;;1.63;;
46755;SDS011;32506;52.826;-1.192;2022-11-12T02:44:23;5.72;;;1.83;;
46755;SDS011;32506;52.826;-1.192;2022-11-12T02:46:48;7.50;;;1.80;;
46755;SDS011;32506;52.826;-1.192;2022-11-12T02:49:13;4.78;;;1.67;;
46755;SDS011;32506;52.826;-1.192;2022-11-12T02:51:39;7.43;;;1.58;;
46755;SDS011;32506;52.826;-1.192;2022-11-12T02:54:05;4.70;;;1.30;;
46755;SDS011;32506;52.826;-1.192;2022-11-12T02:56:30;3.50;;;1.48;;
46755;SDS011;32506;52.826;-1.192;2022-11-12T02:58:56;6.78;;;2.15;;
46755;SDS011;32506;52.826;-1.192;2022-11-12T03:01:21;6.45;;;1.85;;
46755;SDS011;32506;52.826;-1.192;2022-11-12T03:03:47;5.15;;;1.50;;
46755;SDS011;32506;52.826;-1.192;2022-11-12T03:06:12;3.53;;;1.25;;
46755;SDS011;32506;52.826;-1.192;2022-11-12T03:08:38;4.07;;;1.55;;
46755;SDS011;32506;52.826;-1.192;2022-11-12T03:11:10;4.38;;;1.60;;
46755;SDS011;32506;52.826;-1.192;2022-11-12T03:13:38;5.53;;;1.60;;
46755;SDS011;32506;52.826;-1.192;2022-11-12T03:16:04;4.45;;;1.20;;
46755;SDS011;32506;52.826;-1.192;2022-11-12T03:18:30;3.60;;;1.20;;
46755;SDS011;32506;52.826;-1.192;2022-11-12T03:20:55;7.30;;;1.77;;
46755;SDS011;32506;52.826;-1.192;2022-11-12T03:23:20;6.40;;;1.60;;
46755;SDS011;32506;52.826;-1.192;2022-11-12T03:25:46;3.72;;;1.17;;
46755;SDS011;32506;52.826;-1.192;2022-11-12T03:28:12;4.78;;;1.45;;
46755;SDS011;32506;52.826;-1.192;2022-11-12T03:30:39;5.22;;;1.70;;
46755;SDS011;32506;52.826;-1.192;2022-11-12T03:33:07;4.63;;;1.70;;
46755;SDS011;32506;52.826;-1.192;2022-11-12T03:35:33;2.97;;;1.40;;
46755;SDS011;32506;52.826;-1.192;2022-11-12T03:38:00;4.07;;;1.80;;
46755;SDS011;32506;52.826;-1.192;2022-11-12T03:40:26;5.80;;;1.23;;
46755;SDS011;32506;52.826;-1.192;2022-11-12T03:42:52;3.03;;;1.50;;
46755;SDS011;32506;52.826;-1.192;2022-11-12T03:45:18;4.50;;;1.30;;
46755;SDS011;32506;52.826;-1.192;2022-11-12T03:47:49;2.15;;;0.85;;
46755;SDS011;32506;52.826;-1.192;2022-11-12T03:50:17;5.28;;;1.60;;
46755;SDS011;32506;52.826;-1.192;2022-11-12T03:52:45;4.63;;;1.17;;
46755;SDS011;32506;52.826;-1.192;2022-11-12T03:55:12;3.40;;;1.40;;
46755;SDS011;32506;52.826;-1.192;2022-11-12T03:57:39;4.70;;;1.45;;
46755;SDS011;32506;52.826;-1.192;2022-11-12T04:00:05;3.00;;;1.20;;
46755;SDS011;32506;52.826;-1.192;2022-11-12T04:02:32;3.25;;;1.48;;
46755;SDS011;32506;52.826;-1.192;2022-11-12T04:04:58;3.45;;;1.55;;
46755;SDS011;32506;52.826;-1.192;2022-11-12T04:07:43;4.30;;;1.70;;
46755;SDS011;32506;52.826;-1.192;2022-11-12T04:10:27;2.85;;;1.05;;
46755;SDS011;32506;52.826;-1.192;2022-11-12T04:12:56;3.10;;;1.38;;
46755;SDS011;32506;52.826;-1.192;2022-11-12T04:15:40;2.67;;;1.42;;
46755;SDS011;32506;52.826;-1.192;2022-11-12T04:18:05;3.15;;;1.35;;
46755;SDS011;32506;52.826;-1.192;2022-11-12T04:20:49;5.85;;;1.60;;
46755;SDS011;32506;52.826;-1.192;2022-11-12T04:23:33;5.25;;;1.20;;
46755;SDS011;32506;52.826;-1.192;2022-11-12T04:25:58;4.60;;;1.50;;
46755;SDS011;32506;52.826;-1.192;2022-11-12T04:28:42;3.70;;;0.93;;
46755;SDS011;32506;52.826;-1.192;2022-11-12T04:31:28;2.67;;;1.10;;
46755;SDS011;32506;52.826;-1.192;2022-11-12T04:33:53;3.88;;;1.52;;
46755;SDS011;32506;52.826;-1.192;2022-11-12T04:36:19;2.17;;;1.00;;
46755;SDS011;32506;52.826;-1.192;2022-11-12T04:38:44;1.70;;;1.05;;
46755;SDS011;32506;52.826;-1.192;2022-11-12T04:41:09;3.70;;;1.13;;
46755;SDS011;32506;52.826;-1.192;2022-11-12T04:44:07;2.58;;;0.90;;
46755;SDS011;32506;52.826;-1.192;2022-11-12T04:46:51;3.55;;;1.10;;
46755;SDS011;32506;52.826;-1.192;2022-11-12T04:49:17;2.63;;;1.00;;
46755;SDS011;32506;52.826;-1.192;2022-11-12T04:51:42;2.55;;;1.10;;
46755;SDS011;32506;52.826;-1.192;2022-11-12T04:54:26;3.35;;;1.08;;
46755;SDS011;32506;52.826;-1.192;2022-11-12T04:56:52;2.35;;;1.20;;
46755;SDS011;32506;52.826;-1.192;2022-11-12T04:59:17;3.05;;;1.20;;
46755;SDS011;32506;52.826;-1.192;2022-11-12T05:01:43;2.45;;;1.15;;
46755;SDS011;32506;52.826;-1.192;2022-11-12T05:04:08;2.33;;;0.95;;
46755;SDS011;32506;52.826;-1.192;2022-11-12T05:06:33;1.27;;;0.60;;
46755;SDS011;32506;52.826;-1.192;2022-11-12T05:09:21;2.70;;;0.90;;
46755;SDS011;32506;52.826;-1.192;2022-11-12T05:11:48;1.85;;;1.08;;
46755;SDS011;32506;52.826;-1.192;2022-11-12T05:14:14;2.30;;;1.10;;
46755;SDS011;32506;52.826;-1.192;2022-11-12T05:16:39;2.10;;;0.90;;
46755;SDS011;32506;52.826;-1.192;2022-11-12T05:19:05;2.65;;;1.02;;
46755;SDS011;32506;52.826;-1.192;2022-11-12T05:21:30;3.50;;;1.25;;
46755;SDS011;32506;52.826;-1.192;2022-11-12T05:24:14;1.83;;;0.80;;
46755;SDS011;32506;52.826;-1.192;2022-11-12T05:26:40;2.92;;;1.15;;
46755;SDS011;32506;52.826;-1.192;2022-11-12T05:29:06;2.97;;;1.10;;
46755;SDS011;32506;52.826;-1.192;2022-11-12T05:31:31;2.70;;;1.15;;
46755;SDS011;32506;52.826;-1.192;2022-11-12T05:33:57;2.22;;;0.77;;
46755;SDS011;32506;52.826;-1.192;2022-11-12T05:36:23;1.60;;;1.00;;
46755;SDS011;32506;52.826;-1.192;2022-11-12T05:38:49;2.22;;;0.95;;
46755;SDS011;32506;52.826;-1.192;2022-11-12T05:41:14;1.52;;;0.88;;
46755;SDS011;32506;52.826;-1.192;2022-11-12T05:43:39;2.03;;;1.10;;
46755;SDS011;32506;52.826;-1.192;2022-11-12T05:46:05;2.50;;;1.08;;
46755;SDS011;32506;52.826;-1.192;2022-11-12T05:48:30;1.38;;;0.88;;
46755;SDS011;32506;52.826;-1.192;2022-11-12T05:50:56;1.55;;;1.05;;
46755;SDS011;32506;52.826;-1.192;2022-11-12T05:53:22;5.45;;;1.40;;
46755;SDS011;32506;52.826;-1.192;2022-11-12T05:55:47;3.38;;;1.00;;
46755;SDS011;32506;52.826;-1.192;2022-11-12T05:58:13;2.15;;;1.10;;
46755;SDS011;32506;52.826;-1.192;2022-11-12T06:00:38;2.05;;;0.95;;
46755;SDS011;32506;52.826;-1.192;2022-11-12T06:03:04;2.83;;;1.75;;
46755;SDS011;32506;52.826;-1.192;2022-11-12T06:05:30;2.35;;;1.10;;
46755;SDS011;32506;52.826;-1.192;2022-11-12T06:07:58;3.78;;;1.70;;
46755;SDS011;32506;52.826;-1.192;2022-11-12T06:10:24;2.78;;;1.38;;
46755;SDS011;32506;52.826;-1.192;2022-11-12T06:12:50;3.25;;;1.52;;
46755;SDS011;32506;52.826;-1.192;2022-11-12T06:15:16;2.78;;;1.13;;
46755;SDS011;32506;52.826;-1.192;2022-11-12T06:17:42;3.17;;;1.08;;
46755;SDS011;32506;52.826;-1.192;2022-11-12T06:20:07;2.78;;;1.20;;
46755;SDS011;32506;52.826;-1.192;2022-11-12T06:22:33;3.65;;;1.70;;
46755;SDS011;32506;52.826;-1.192;2022-11-12T06:24:59;3.65;;;1.48;;
46755;SDS011;32506;52.826;-1.192;2022-11-12T06:27:24;2.72;;;1.20;;
46755;SDS011;32506;52.826;-1.192;2022-11-12T06:29:50;2.17;;;1.33;;
46755;SDS011;32506;52.826;-1.192;2022-11-12T06:32:16;1.85;;;1.10;;
46755;SDS011;32506;52.826;-1.192;2022-11-12T06:34:42;2.90;;;1.35;;
46755;SDS011;32506;52.826;-1.192;2022-11-12T06:37:07;2.92;;;1.27;;
46755;SDS011;32506;52.826;-1.192;2022-11-12T06:39:33;2.40;;;1.17;;
46755;SDS011;32506;52.826;-1.192;2022-11-12T06:41:58;1.60;;;1.17;;
46755;SDS011;32506;52.826;-1.192;2022-11-12T06:44:23;2.65;;;1.30;;
46755;SDS011;32506;52.826;-1.192;2022-11-12T06:46:49;2.55;;;1.25;;
46755;SDS011;32506;52.826;-1.192;2022-11-12T06:49:15;1.90;;;1.17;;
46755;SDS011;32506;52.826;-1.192;2022-11-12T06:51:40;4.20;;;1.40;;
46755;SDS011;32506;52.826;-1.192;2022-11-12T06:54:05;2.10;;;1.40;;
46755;SDS011;32506;52.826;-1.192;2022-11-12T06:56:31;3.13;;;1.25;;
46755;SDS011;32506;52.826;-1.192;2022-11-12T06:58:57;2.05;;;1.23;;
46755;SDS011;32506;52.826;-1.192;2022-11-12T07:01:23;2.92;;;1.50;;
46755;SDS011;32506;52.826;-1.192;2022-11-12T07:03:50;2.35;;;1.42;;
46755;SDS011;32506;52.826;-1.192;2022-11-12T07:06:16;3.10;;;1.58;;
46755;SDS011;32506;52.826;-1.192;2022-11-12T07:08:44;3.38;;;1.27;;
46755;SDS011;32506;52.826;-1.192;2022-11-12T07:11:16;3.97;;;2.40;;
46755;SDS011;32506;52.826;-1.192;2022-11-12T07:13:43;4.40;;;1.50;;
46755;SDS011;32506;52.826;-1.192;2022-11-12T07:16:09;2.70;;;1.38;;
46755;SDS011;32506;52.826;-1.192;2022-11-12T07:18:35;2.92;;;1.45;;
46755;SDS011;32506;52.826;-1.192;2022-11-12T07:21:08;2.20;;;1.52;;
46755;SDS011;32506;52.826;-1.192;2022-11-12T07:23:36;2.90;;;1.48;;
46755;SDS011;32506;52.826;-1.192;2022-11-12T07:26:23;3.05;;;1.52;;
46755;SDS011;32506;52.826;-1.192;2022-11-12T07:28:49;3.50;;;1.42;;
46755;SDS011;32506;52.826;-1.192;2022-11-12T07:31:16;2.40;;;1.45;;
46755;SDS011;32506;52.826;-1.192;2022-11-12T07:33:43;3.60;;;1.58;;
46755;SDS011;32506;52.826;-1.192;2022-11-12T07:36:13;2.90;;;1.58;;
46755;SDS011;32506;52.826;-1.192;2022-11-12T07:38:40;3.17;;;1.55;;
46755;SDS011;32506;52.826;-1.192;2022-11-12T07:41:09;3.30;;;1.77;;
46755;SDS011;32506;52.826;-1.192;2022-11-12T07:43:43;4.60;;;1.67;;
46755;SDS011;32506;52.826;-1.192;2022-11-12T07:46:15;3.35;;;1.92;;
46755;SDS011;32506;52.826;-1.192;2022-11-12T07:51:16;2.65;;;1.35;;
46755;SDS011;32506;52.826;-1.192;2022-11-12T07:53:46;3.50;;;2.38;;
46755;SDS011;32506;52.826;-1.192;2022-11-12T07:56:16;3.92;;;1.80;;
46755;SDS011;32506;52.826;-1.192;2022-11-12T07:58:43;3.58;;;2.20;;
46755;SDS011;32506;52.826;-1.192;2022-11-12T08:01:10;5.30;;;2.00;;
46755;SDS011;32506;52.826;-1.192;2022-11-12T08:03:49;3.55;;;1.90;;
46755;SDS011;32506;52.826;-1.192;2022-11-12T08:06:15;3.72;;;2.10;;
46755;SDS011;32506;52.826;-1.192;2022-11-12T08:08:40;4.10;;;1.80;;
46755;SDS011;32506;52.826;-1.192;2022-11-12T08:11:06;4.50;;;2.03;;
46755;SDS011;32506;52.826;-1.192;2022-11-12T08:13:32;3.53;;;2.10;;
46755;SDS011;32506;52.826;-1.192;2022-11-12T08:15:58;5.88;;;2.38;;
46755;SDS011;32506;52.826;-1.192;2022-11-12T08:18:24;4.63;;;2.58;;
46755;SDS011;32506;52.826;-1.192;2022-11-12T08:20:50;4.95;;;2.35;;
46755;SDS011;32506;52.826;-1.192;2022-11-12T08:23:16;5.45;;;2.92;;
46755;SDS011;32506;52.826;-1.192;2022-11-12T08:25:42;4.70;;;2.15;;
46755;SDS011;32506;52.826;-1.192;2022-11-12T08:28:07;5.40;;;2.72;;
46755;SDS011;32506;52.826;-1.192;2022-11-12T08:30:33;4.72;;;2.75;;
46755;SDS011;32506;52.826;-1.192;2022-11-12T08:33:00;3.78;;;2.22;;
46755;SDS011;32506;52.826;-1.192;2022-11-12T08:35:28;5.60;;;2.47;;
46755;SDS011;32506;52.826;-1.192;2022-11-12T08:38:01;4.90;;;2.63;;
46755;SDS011;32506;52.826;-1.192;2022-11-12T08:40:28;5.07;;;2.72;;
46755;SDS011;32506;52.826;-1.192;2022-11-12T08:42:58;5.63;;;2.85;;
46755;SDS011;32506;52.826;-1.192;2022-11-12T08:45:25;7.30;;;3.05;;
46755;SDS011;32506;52.826;-1.192;2022-11-12T08:47:52;5.38;;;2.65;;
46755;SDS011;32506;52.826;-1.192;2022-11-12T08:50:18;6.40;;;3.00;;
46755;SDS011;32506;52.826;-1.192;2022-11-12T08:52:43;5.60;;;2.17;;
46755;SDS011;32506;52.826;-1.192;2022-11-12T08:55:09;6.93;;;3.28;;
46755;SDS011;32506;52.826;-1.192;2022-11-12T08:57:39;6.28;;;3.00;;
46755;SDS011;32506;52.826;-1.192;2022-11-12T09:00:06;4.40;;;2.42;;
46755;SDS011;32506;52.826;-1.192;2022-11-12T09:02:33;4.38;;;2.10;;
46755;SDS011;32506;52.826;-1.192;2022-11-12T09:04:58;5.75;;;2.53;;
46755;SDS011;32506;52.826;-1.192;2022-11-12T09:07:24;6.10;;;2.78;;
46755;SDS011;32506;52.826;-1.192;2022-11-12T09:09:49;5.88;;;2.65;;
46755;SDS011;32506;52.826;-1.192;2022-11-12T09:12:14;5.38;;;2.90;;
46755;SDS011;32506;52.826;-1.192;2022-11-12T09:14:43;5.85;;;2.80;;
46755;SDS011;32506;52.826;-1.192;2022-11-12T09:17:09;6.10;;;3.20;;
46755;SDS011;32506;52.826;-1.192;2022-11-12T09:19:35;7.05;;;4.78;;
46755;SDS011;32506;52.826;-1.192;2022-11-12T09:22:00;6.43;;;3.53;;
46755;SDS011;32506;52.826;-1.192;2022-11-12T09:24:26;7.65;;;3.95;;
46755;SDS011;32506;52.826;-1.192;2022-11-12T09:26:51;6.90;;;4.40;;
46755;SDS011;32506;52.826;-1.192;2022-11-12T09:29:17;6.22;;;4.45;;
46755;SDS011;32506;52.826;-1.192;2022-11-12T09:31:43;6.70;;;4.30;;
46755;SDS011;32506;52.826;-1.192;2022-11-12T09:34:09;8.98;;;4.70;;
46755;SDS011;32506;52.826;-1.192;2022-11-12T09:36:34;8.35;;;4.82;;
46755;SDS011;32506;52.826;-1.192;2022-11-12T09:39:00;6.97;;;4.50;;
46755;SDS011;32506;52.826;-1.192;2022-11-12T09:43:56;8.20;;;5.85;;
46755;SDS011;32506;52.826;-1.192;2022-11-12T09:46:45;6.60;;;4.07;;
46755;SDS011;32506;52.826;-1.192;2022-11-12T09:49:35;8.13;;;4.90;;
46755;SDS011;32506;52.826;-1.192;2022-11-12T09:52:10;9.50;;;5.22;;
46755;SDS011;32506;52.826;-1.192;2022-11-12T09:54:40;8.35;;;4.72;;
46755;SDS011;32506;52.826;-1.192;2022-11-12T09:57:12;8.57;;;5.43;;
46755;SDS011;32506;52.826;-1.192;2022-11-12T09:59:39;7.95;;;4.88;;
46755;SDS011;32506;52.826;-1.192;2022-11-12T10:10:30;8.95;;;6.22;;
46755;SDS011;32506;52.826;-1.192;2022-11-12T10:15:35;7.60;;;5.85;;
46755;SDS011;32506;52.826;-1.192;2022-11-12T10:18:27;9.50;;;7.05;;
46755;SDS011;32506;52.826;-1.192;2022-11-12T10:21:11;10.00;;;7.07;;
46755;SDS011;32506;52.826;-1.192;2022-11-12T10:23:45;9.77;;;7.45;;
46755;SDS011;32506;52.826;-1.192;2022-11-12T10:26:14;9.68;;;6.75;;
46755;SDS011;32506;52.826;-1.192;2022-11-12T10:28:52;11.80;;;6.53;;
46755;SDS011;32506;52.826;-1.192;2022-11-12T10:31:24;9.70;;;6.50;;
46755;SDS011;32506;52.826;-1.192;2022-11-12T10:33:49;10.02;;;6.47;;
46755;SDS011;32506;52.826;-1.192;2022-11-12T10:38:58;8.07;;;6.50;;
46755;SDS011;32506;52.826;-1.192;2022-11-12T10:41:28;11.02;;;7.25;;
46755;SDS011;32506;52.826;-1.192;2022-11-12T10:46:23;11.55;;;8.02;;
46755;SDS011;32506;52.826;-1.192;2022-11-12T10:48:55;11.50;;;6.43;;
46755;SDS011;32506;52.826;-1.192;2022-11-12T10:51:27;9.20;;;6.40;;
46755;SDS011;32506;52.826;-1.192;2022-11-12T10:53:55;10.05;;;6.85;;
46755;SDS011;32506;52.826;-1.192;2022-11-12T10:56:25;9.48;;;6.75;;
46755;SDS011;32506;52.826;-1.192;2022-11-12T10:59:13;8.50;;;6.20;;
46755;SDS011;32506;52.826;-1.192;2022-11-12T11:01:44;8.23;;;6.28;;
46755;SDS011;32506;52.826;-1.192;2022-11-12T11:04:26;8.45;;;6.35;;
46755;SDS011;32506;52.826;-1.192;2022-11-12T11:06:58;8.90;;;6.07;;
46755;SDS011;32506;52.826;-1.192;2022-11-12T11:09:27;8.52;;;5.30;;
46755;SDS011;32506;52.826;-1.192;2022-11-12T11:11:52;8.48;;;5.60;;
46755;SDS011;32506;52.826;-1.192;2022-11-12T11:16:50;7.68;;;5.53;;
46755;SDS011;32506;52.826;-1.192;2022-11-12T11:19:22;9.02;;;5.95;;
46755;SDS011;32506;52.826;-1.192;2022-11-12T11:22:11;8.65;;;5.25;;
46755;SDS011;32506;52.826;-1.192;2022-11-12T11:30:36;8.52;;;5.22;;
46755;SDS011;32506;52.826;-1.192;2022-11-12T11:44:24;7.80;;;5.30;;
46755;SDS011;32506;52.826;-1.192;2022-11-12T12:03:47;5.68;;;4.30;;
46755;SDS011;32506;52.826;-1.192;2022-11-12T12:06:37;7.72;;;4.78;;
46755;SDS011;32506;52.826;-1.192;2022-11-12T12:09:26;6.80;;;4.93;;
46755;SDS011;32506;52.826;-1.192;2022-11-12T12:12:23;6.85;;;4.65;;
46755;SDS011;32506;52.826;-1.192;2022-11-12T12:17:49;7.07;;;4.38;;
46755;SDS011;32506;52.826;-1.192;2022-11-12T12:20:42;6.00;;;4.40;;
46755;SDS011;32506;52.826;-1.192;2022-11-12T12:23:22;6.10;;;4.90;;
46755;SDS011;32506;52.826;-1.192;2022-11-12T12:26:15;5.05;;;3.97;;
46755;SDS011;32506;52.826;-1.192;2022-11-12T12:28:49;6.32;;;4.63;;
46755;SDS011;32506;52.826;-1.192;2022-11-12T12:31:37;6.85;;;4.30;;
46755;SDS011;32506;52.826;-1.192;2022-11-12T12:34:16;5.63;;;3.85;;
46755;SDS011;32506;52.826;-1.192;2022-11-12T12:36:48;6.03;;;4.03;;
46755;SDS011;32506;52.826;-1.192;2022-11-12T12:41:58;6.22;;;3.97;;
46755;SDS011;32506;52.826;-1.192;2022-11-12T12:44:26;6.28;;;3.70;;
46755;SDS011;32506;52.826;-1.192;2022-11-12T12:47:16;5.38;;;3.22;;
46755;SDS011;32506;52.826;-1.192;2022-11-12T12:49:44;5.95;;;3.42;;
46755;SDS011;32506;52.826;-1.192;2022-11-12T12:52:12;4.97;;;3.00;;
46755;SDS011;32506;52.826;-1.192;2022-11-12T12:57:24;4.22;;;2.88;;
46755;SDS011;32506;52.826;-1.192;2022-11-12T12:59:50;4.68;;;2.78;;
46755;SDS011;32506;52.826;-1.192;2022-11-12T13:02:20;4.95;;;2.50;;
46755;SDS011;32506;52.826;-1.192;2022-11-12T13:04:51;3.28;;;2.47;;
46755;SDS011;32506;52.826;-1.192;2022-11-12T13:10:49;4.20;;;2.33;;
46755;SDS011;32506;52.826;-1.192;2022-11-12T13:13:04;4.05;;;2.15;;
46755;SDS011;32506;52.826;-1.192;2022-11-12T13:15:46;4.68;;;2.22;;
46755;SDS011;32506;52.826;-1.192;2022-11-12T13:19:23;6.13;;;2.75;;
46755;SDS011;32506;52.826;-1.192;2022-11-12T13:23:47;3.35;;;2.35;;
46755;SDS011;32506;52.826;-1.192;2022-11-12T13:26:45;4.05;;;2.30;;
46755;SDS011;32506;52.826;-1.192;2022-11-12T13:31:45;3.42;;;2.65;;
46755;SDS011;32506;52.826;-1.192;2022-11-12T13:34:18;4.28;;;2.63;;
46755;SDS011;32506;52.826;-1.192;2022-11-12T13:36:54;5.18;;;2.63;;
46755;SDS011;32506;52.826;-1.192;2022-11-12T13:39:22;5.50;;;2.33;;
46755;SDS011;32506;52.826;-1.192;2022-11-12T13:41:56;5.05;;;2.67;;
46755;SDS011;32506;52.826;-1.192;2022-11-12T13:44:45;5.65;;;2.63;;
46755;SDS011;32506;52.826;-1.192;2022-11-12T13:47:13;3.50;;;2.00;;
46755;SDS011;32506;52.826;-1.192;2022-11-12T13:49:44;4.22;;;2.50;;
46755;SDS011;32506;52.826;-1.192;2022-11-12T13:52:15;4.85;;;2.28;;
46755;SDS011;32506;52.826;-1.192;2022-11-12T13:54:43;3.60;;;2.35;;
46755;SDS011;32506;52.826;-1.192;2022-11-12T13:57:44;3.08;;;2.00;;
46755;SDS011;32506;52.826;-1.192;2022-11-12T14:02:46;4.50;;;2.05;;
46755;SDS011;32506;52.826;-1.192;2022-11-12T14:05:19;3.50;;;1.92;;
46755;SDS011;32506;52.826;-1.192;2022-11-12T14:07:51;3.17;;;1.92;;
46755;SDS011;32506;52.826;-1.192;2022-11-12T14:13:22;3.67;;;2.00;;
46755;SDS011;32506;52.826;-1.192;2022-11-12T14:24:25;3.03;;;1.98;;
46755;SDS011;32506;52.826;-1.192;2022-11-12T14:26:50;4.82;;;2.38;;
46755;SDS011;32506;52.826;-1.192;2022-11-12T14:29:16;4.30;;;2.20;;
46755;SDS011;32506;52.826;-1.192;2022-11-12T14:31:42;3.67;;;2.20;;
46755;SDS011;32506;52.826;-1.192;2022-11-12T14:34:17;3.55;;;2.03;;
46755;SDS011;32506;52.826;-1.192;2022-11-12T14:36:50;3.97;;;2.50;;
46755;SDS011;32506;52.826;-1.192;2022-11-12T14:39:19;3.63;;;2.15;;
46755;SDS011;32506;52.826;-1.192;2022-11-12T14:41:46;4.03;;;2.40;;
46755;SDS011;32506;52.826;-1.192;2022-11-12T14:44:16;3.33;;;2.10;;
46755;SDS011;32506;52.826;-1.192;2022-11-12T14:46:49;3.90;;;1.80;;
46755;SDS011;32506;52.826;-1.192;2022-11-12T14:51:51;4.45;;;1.92;;
46755;SDS011;32506;52.826;-1.192;2022-11-12T14:54:32;4.90;;;2.58;;
46755;SDS011;32506;52.826;-1.192;2022-11-12T14:57:04;5.55;;;2.75;;
46755;SDS011;32506;52.826;-1.192;2022-11-12T14:59:30;3.78;;;2.03;;
46755;SDS011;32506;52.826;-1.192;2022-11-12T15:02:01;3.35;;;2.40;;
46755;SDS011;32506;52.826;-1.192;2022-11-12T15:04:34;4.80;;;2.60;;
46755;SDS011;32506;52.826;-1.192;2022-11-12T15:07:02;6.82;;;2.70;;
46755;SDS011;32506;52.826;-1.192;2022-11-12T15:09:35;5.15;;;2.63;;
46755;SDS011;32506;52.826;-1.192;2022-11-12T15:12:03;3.42;;;2.38;;
46755;SDS011;32506;52.826;-1.192;2022-11-12T15:14:33;3.33;;;2.20;;
46755;SDS011;32506;52.826;-1.192;2022-11-12T15:16:59;4.32;;;2.42;;
46755;SDS011;32506;52.826;-1.192;2022-11-12T15:19:27;4.10;;;2.53;;
46755;SDS011;32506;52.826;-1.192;2022-11-12T15:24:29;4.32;;;2.30;;
46755;SDS011;32506;52.826;-1.192;2022-11-12T15:26:56;4.35;;;2.38;;
46755;SDS011;32506;52.826;-1.192;2022-11-12T15:31:55;5.60;;;2.67;;
46755;SDS011;32506;52.826;-1.192;2022-11-12T15:36:55;4.78;;;3.03;;
46755;SDS011;32506;52.826;-1.192;2022-11-12T15:39:21;6.03;;;3.08;;
46755;SDS011;32506;52.826;-1.192;2022-11-12T15:41:58;3.90;;;2.97;;
46755;SDS011;32506;52.826;-1.192;2022-11-12T15:44:28;6.53;;;3.00;;
46755;SDS011;32506;52.826;-1.192;2022-11-12T15:47:00;6.15;;;2.88;;
46755;SDS011;32506;52.826;-1.192;2022-11-12T15:49:26;7.13;;;3.13;;
46755;SDS011;32506;52.826;-1.192;2022-11-12T15:51:52;5.13;;;3.13;;
46755;SDS011;32506;52.826;-1.192;2022-11-12T15:54:17;5.28;;;3.17;;
46755;SDS011;32506;52.826;-1.192;2022-11-12T15:56:43;6.30;;;3.30;;
46755;SDS011;32506;52.826;-1.192;2022-11-12T15:59:11;5.72;;;3.72;;
46755;SDS011;32506;52.826;-1.192;2022-11-12T16:01:40;4.25;;;3.05;;
46755;SDS011;32506;52.826;-1.192;2022-11-12T16:04:07;3.80;;;3.08;;
46755;SDS011;32506;52.826;-1.192;2022-11-12T16:06:33;7.20;;;3.90;;
46755;SDS011;32506;52.826;-1.192;2022-11-12T16:08:58;5.15;;;3.00;;
46755;SDS011;32506;52.826;-1.192;2022-11-12T16:11:24;4.65;;;3.22;;
46755;SDS011;32506;52.826;-1.192;2022-11-12T16:14:04;7.10;;;3.33;;
46755;SDS011;32506;52.826;-1.192;2022-11-12T16:16:31;4.20;;;2.85;;
46755;SDS011;32506;52.826;-1.192;2022-11-12T16:18:58;7.20;;;3.45;;
46755;SDS011;32506;52.826;-1.192;2022-11-12T16:21:24;6.97;;;3.65;;
46755;SDS011;32506;52.826;-1.192;2022-11-12T16:23:49;5.45;;;3.47;;